sensor_id;sensor_type;location;lat;lon;timestamp;temperature;humidity
3466;DHT22;1747;48.884;9.160;2023-09-19T00:00:06;19.20;99.90
3466;DHT22;1747;48.884;9.160;2023-09-19T00:02:38;19.20;99.90
3466;DHT22;1747;48.884;9.160;2023-09-19T00:05:05;19.00;99.90
3466;DHT22;1747;48.884;9.160;2023-09-19T00:07:33;18.90;99.90
3466;DHT22;1747;48.884;9.160;2023-09-19T00:10:02;18.90;99.90
3466;DHT22;1747;48.884;9.160;2023-09-19T00:12:30;18.90;99.90
3466;DHT22;1747;48.884;9.160;2023-09-19T00:14:58;18.90;99.90
3466;DHT22;1747;48.884;9.160;2023-09-19T00:17:26;18.90;99.90
3466;DHT22;1747;48.884;9.160;2023-09-19T00:19:56;18.90;99.90
3466;DHT22;1747;48.884;9.160;2023-09-19T00:22:22;18.90;99.90
3466;DHT22;1747;48.884;9.160;2023-09-19T00:24:51;18.90;99.90
3466;DHT22;1747;48.884;9.160;2023-09-19T00:27:19;18.90;99.90
3466;DHT22;1747;48.884;9.160;2023-09-19T00:29:45;18.80;99.90
3466;DHT22;1747;48.884;9.160;2023-09-19T00:32:13;18.80;99.90
3466;DHT22;1747;48.884;9.160;2023-09-19T00:34:40;18.90;99.90
3466;DHT22;1747;48.884;9.160;2023-09-19T00:37:08;18.90;99.90
3466;DHT22;1747;48.884;9.160;2023-09-19T00:39:36;18.90;99.90
3466;DHT22;1747;48.884;9.160;2023-09-19T00:42:04;18.80;99.90
3466;DHT22;1747;48.884;9.160;2023-09-19T00:44:30;18.80;99.90
3466;DHT22;1747;48.884;9.160;2023-09-19T00:47:00;18.80;99.90
3466;DHT22;1747;48.884;9.160;2023-09-19T00:49:29;18.80;99.90
3466;DHT22;1747;48.884;9.160;2023-09-19T00:51:56;18.80;99.90
3466;DHT22;1747;48.884;9.160;2023-09-19T00:54:23;18.80;99.90
3466;DHT22;1747;48.884;9.160;2023-09-19T00:56:51;18.90;99.90
3466;DHT22;1747;48.884;9.160;2023-09-19T00:59:20;18.90;99.90
3466;DHT22;1747;48.884;9.160;2023-09-19T01:01:47;18.80;99.90
3466;DHT22;1747;48.884;9.160;2023-09-19T01:04:18;18.80;99.90
3466;DHT22;1747;48.884;9.160;2023-09-19T01:06:47;18.80;99.90
3466;DHT22;1747;48.884;9.160;2023-09-19T01:09:18;18.80;99.90
3466;DHT22;1747;48.884;9.160;2023-09-19T01:11:48;18.80;99.90
3466;DHT22;1747;48.884;9.160;2023-09-19T01:14:28;18.90;99.90
3466;DHT22;1747;48.884;9.160;2023-09-19T01:17:02;18.90;99.90
3466;DHT22;1747;48.884;9.160;2023-09-19T01:22:53;18.80;99.90
3466;DHT22;1747;48.884;9.160;2023-09-19T01:26:05;18.90;99.90
3466;DHT22;1747;48.884;9.160;2023-09-19T01:28:43;18.90;99.90
3466;DHT22;1747;48.884;9.160;2023-09-19T01:31:15;19.00;99.90
3466;DHT22;1747;48.884;9.160;2023-09-19T01:33:58;19.00;99.90
3466;DHT22;1747;48.884;9.160;2023-09-19T01:36:27;19.00;99.90
3466;DHT22;1747;48.884;9.160;2023-09-19T01:38:54;19.00;99.90
3466;DHT22;1747;48.884;9.160;2023-09-19T01:41:26;18.90;99.90
3466;DHT22;1747;48.884;9.160;2023-09-19T01:43:55;18.80;99.90
3466;DHT22;1747;48.884;9.160;2023-09-19T01:46:25;18.80;99.90
3466;DHT22;1747;48.884;9.160;2023-09-19T01:49:04;18.80;99.90
3466;DHT22;1747;48.884;9.160;2023-09-19T01:51:41;18.70;99.90
3466;DHT22;1747;48.884;9.160;2023-09-19T01:54:12;18.80;99.90
3466;DHT22;1747;48.884;9.160;2023-09-19T01:56:50;18.80;99.90
3466;DHT22;1747;48.884;9.160;2023-09-19T01:59:24;18.70;99.90
3466;DHT22;1747;48.884;9.160;2023-09-19T02:01:54;18.60;99.90
3466;DHT22;1747;48.884;9.160;2023-09-19T02:04:22;18.60;99.90
3466;DHT22;1747;48.884;9.160;2023-09-19T02:06:48;18.60;99.90
3466;DHT22;1747;48.884;9.160;2023-09-19T02:09:15;18.60;99.90
3466;DHT22;1747;48.884;9.160;2023-09-19T02:11:42;18.60;99.90
3466;DHT22;1747;48.884;9.160;2023-09-19T02:14:09;18.60;99.90
3466;DHT22;1747;48.884;9.160;2023-09-19T02:16:36;18.60;99.90
3466;DHT22;1747;48.884;9.160;2023-09-19T02:19:04;18.60;99.90
3466;DHT22;1747;48.884;9.160;2023-09-19T02:21:31;18.50;99.90
3466;DHT22;1747;48.884;9.160;2023-09-19T02:23:58;18.50;99.90
3466;DHT22;1747;48.884;9.160;2023-09-19T02:26:25;18.50;99.90
3466;DHT22;1747;48.884;9.160;2023-09-19T02:28:52;18.40;99.90
3466;DHT22;1747;48.884;9.160;2023-09-19T02:31:19;18.30;99.90
3466;DHT22;1747;48.884;9.160;2023-09-19T02:33:46;18.30;99.90
3466;DHT22;1747;48.884;9.160;2023-09-19T02:36:14;18.30;99.90
3466;DHT22;1747;48.884;9.160;2023-09-19T02:38:42;18.20;99.90
3466;DHT22;1747;48.884;9.160;2023-09-19T02:41:09;18.20;99.90
3466;DHT22;1747;48.884;9.160;2023-09-19T02:43:37;18.20;99.90
3466;DHT22;1747;48.884;9.160;2023-09-19T02:46:04;18.20;99.90
3466;DHT22;1747;48.884;9.160;2023-09-19T02:48:31;18.20;99.90
3466;DHT22;1747;48.884;9.160;2023-09-19T02:51:00;18.20;99.90
3466;DHT22;1747;48.884;9.160;2023-09-19T02:53:28;18.10;99.90
3466;DHT22;1747;48.884;9.160;2023-09-19T02:55:56;18.10;99.90
3466;DHT22;1747;48.884;9.160;2023-09-19T02:58:24;18.10;99.90
3466;DHT22;1747;48.884;9.160;2023-09-19T03:00:53;18.10;99.90
3466;DHT22;1747;48.884;9.160;2023-09-19T03:03:20;18.10;99.90
3466;DHT22;1747;48.884;9.160;2023-09-19T03:05:48;18.10;99.90
3466;DHT22;1747;48.884;9.160;2023-09-19T03:08:22;18.20;99.90
3466;DHT22;1747;48.884;9.160;2023-09-19T03:10:55;18.20;99.90
3466;DHT22;1747;48.884;9.160;2023-09-19T03:13:22;18.20;99.90
3466;DHT22;1747;48.884;9.160;2023-09-19T03:15:49;18.30;99.90
3466;DHT22;1747;48.884;9.160;2023-09-19T03:18:16;18.30;99.90
3466;DHT22;1747;48.884;9.160;2023-09-19T03:20:43;18.40;99.90
3466;DHT22;1747;48.884;9.160;2023-09-19T03:23:10;18.40;99.90
3466;DHT22;1747;48.884;9.160;2023-09-19T03:25:38;18.40;99.90
3466;DHT22;1747;48.884;9.160;2023-09-19T03:28:07;18.40;99.90
3466;DHT22;1747;48.884;9.160;2023-09-19T03:30:35;18.50;99.90
3466;DHT22;1747;48.884;9.160;2023-09-19T03:33:02;18.50;99.90
3466;DHT22;1747;48.884;9.160;2023-09-19T03:35:30;18.40;99.90
3466;DHT22;1747;48.884;9.160;2023-09-19T03:37:57;18.30;99.90
3466;DHT22;1747;48.884;9.160;2023-09-19T03:40:24;18.40;99.90
3466;DHT22;1747;48.884;9.160;2023-09-19T03:42:51;18.40;99.90
3466;DHT22;1747;48.884;9.160;2023-09-19T03:45:19;18.40;99.90
3466;DHT22;1747;48.884;9.160;2023-09-19T03:47:46;18.30;99.90
3466;DHT22;1747;48.884;9.160;2023-09-19T03:50:13;18.20;99.90
3466;DHT22;1747;48.884;9.160;2023-09-19T03:52:42;18.20;99.90
3466;DHT22;1747;48.884;9.160;2023-09-19T03:55:09;18.20;99.90
3466;DHT22;1747;48.884;9.160;2023-09-19T03:57:36;18.10;99.90
3466;DHT22;1747;48.884;9.160;2023-09-19T04:00:04;18.10;99.90
3466;DHT22;1747;48.884;9.160;2023-09-19T04:02:37;18.00;99.90
3466;DHT22;1747;48.884;9.160;2023-09-19T04:05:05;18.00;99.90
3466;DHT22;1747;48.884;9.160;2023-09-19T04:07:32;18.00;99.90
3466;DHT22;1747;48.884;9.160;2023-09-19T04:09:59;18.00;99.90
3466;DHT22;1747;48.884;9.160;2023-09-19T04:12:26;17.90;99.90
3466;DHT22;1747;48.884;9.160;2023-09-19T04:14:53;17.90;99.90
3466;DHT22;1747;48.884;9.160;2023-09-19T04:17:20;17.90;99.90
3466;DHT22;1747;48.884;9.160;2023-09-19T04:19:48;17.80;99.90
3466;DHT22;1747;48.884;9.160;2023-09-19T04:22:15;17.80;99.90
3466;DHT22;1747;48.884;9.160;2023-09-19T04:24:41;17.80;99.90
3466;DHT22;1747;48.884;9.160;2023-09-19T04:27:08;17.80;99.90
3466;DHT22;1747;48.884;9.160;2023-09-19T04:29:37;17.80;99.90
3466;DHT22;1747;48.884;9.160;2023-09-19T04:32:05;17.80;99.90
3466;DHT22;1747;48.884;9.160;2023-09-19T04:34:33;17.80;99.90
3466;DHT22;1747;48.884;9.160;2023-09-19T04:37:01;17.80;99.90
3466;DHT22;1747;48.884;9.160;2023-09-19T04:39:29;17.90;99.90
3466;DHT22;1747;48.884;9.160;2023-09-19T04:41:56;17.90;99.90
3466;DHT22;1747;48.884;9.160;2023-09-19T04:44:23;17.90;99.90
3466;DHT22;1747;48.884;9.160;2023-09-19T04:46:50;17.90;99.90
3466;DHT22;1747;48.884;9.160;2023-09-19T04:49:17;17.90;99.90
3466;DHT22;1747;48.884;9.160;2023-09-19T04:51:45;17.90;99.90
3466;DHT22;1747;48.884;9.160;2023-09-19T04:54:13;18.00;99.90
3466;DHT22;1747;48.884;9.160;2023-09-19T04:56:41;18.00;99.90
3466;DHT22;1747;48.884;9.160;2023-09-19T04:59:08;18.10;99.90
3466;DHT22;1747;48.884;9.160;2023-09-19T05:01:36;18.00;99.90
3466;DHT22;1747;48.884;9.160;2023-09-19T05:04:03;18.00;99.90
3466;DHT22;1747;48.884;9.160;2023-09-19T05:06:30;18.00;99.90
3466;DHT22;1747;48.884;9.160;2023-09-19T05:09:01;18.10;99.90
3466;DHT22;1747;48.884;9.160;2023-09-19T05:11:32;18.20;99.90
3466;DHT22;1747;48.884;9.160;2023-09-19T05:13:59;18.20;99.90
3466;DHT22;1747;48.884;9.160;2023-09-19T05:16:29;18.10;99.90
3466;DHT22;1747;48.884;9.160;2023-09-19T05:18:57;18.20;99.90
3466;DHT22;1747;48.884;9.160;2023-09-19T05:21:23;18.30;99.90
3466;DHT22;1747;48.884;9.160;2023-09-19T05:23:51;18.20;99.90
3466;DHT22;1747;48.884;9.160;2023-09-19T05:26:18;18.20;99.90
3466;DHT22;1747;48.884;9.160;2023-09-19T05:28:47;18.20;99.90
3466;DHT22;1747;48.884;9.160;2023-09-19T05:31:14;18.10;99.90
3466;DHT22;1747;48.884;9.160;2023-09-19T05:33:42;18.10;99.90
3466;DHT22;1747;48.884;9.160;2023-09-19T05:36:09;18.10;99.90
3466;DHT22;1747;48.884;9.160;2023-09-19T05:38:37;18.10;99.90
3466;DHT22;1747;48.884;9.160;2023-09-19T05:41:06;17.90;99.90
3466;DHT22;1747;48.884;9.160;2023-09-19T05:43:33;17.80;99.90
3466;DHT22;1747;48.884;9.160;2023-09-19T05:46:04;17.80;99.90
3466;DHT22;1747;48.884;9.160;2023-09-19T05:48:31;17.80;99.90
3466;DHT22;1747;48.884;9.160;2023-09-19T05:50:58;17.80;99.90
3466;DHT22;1747;48.884;9.160;2023-09-19T05:53:27;17.90;99.90
3466;DHT22;1747;48.884;9.160;2023-09-19T05:55:54;17.90;99.90
3466;DHT22;1747;48.884;9.160;2023-09-19T05:58:21;17.80;99.90
3466;DHT22;1747;48.884;9.160;2023-09-19T06:00:48;17.80;99.90
3466;DHT22;1747;48.884;9.160;2023-09-19T06:03:16;17.90;99.90
3466;DHT22;1747;48.884;9.160;2023-09-19T06:05:44;17.80;99.90
3466;DHT22;1747;48.884;9.160;2023-09-19T06:08:11;17.70;99.90
3466;DHT22;1747;48.884;9.160;2023-09-19T06:10:38;17.70;99.90
3466;DHT22;1747;48.884;9.160;2023-09-19T06:13:05;17.60;99.90
3466;DHT22;1747;48.884;9.160;2023-09-19T06:15:35;17.50;99.90
3466;DHT22;1747;48.884;9.160;2023-09-19T06:18:02;17.50;99.90
3466;DHT22;1747;48.884;9.160;2023-09-19T06:20:31;17.50;99.90
3466;DHT22;1747;48.884;9.160;2023-09-19T06:22:58;17.40;99.90
3466;DHT22;1747;48.884;9.160;2023-09-19T06:25:27;17.40;99.90
3466;DHT22;1747;48.884;9.160;2023-09-19T06:27:54;17.40;99.90
3466;DHT22;1747;48.884;9.160;2023-09-19T06:30:22;17.50;99.90
3466;DHT22;1747;48.884;9.160;2023-09-19T06:32:55;17.40;99.90
3466;DHT22;1747;48.884;9.160;2023-09-19T06:35:22;17.50;99.90
3466;DHT22;1747;48.884;9.160;2023-09-19T06:37:50;17.50;99.90
3466;DHT22;1747;48.884;9.160;2023-09-19T06:40:18;17.60;99.90
3466;DHT22;1747;48.884;9.160;2023-09-19T06:42:46;17.60;99.90
3466;DHT22;1747;48.884;9.160;2023-09-19T06:45:14;17.60;99.90
3466;DHT22;1747;48.884;9.160;2023-09-19T06:47:44;17.70;99.90
3466;DHT22;1747;48.884;9.160;2023-09-19T06:50:11;17.80;99.90
3466;DHT22;1747;48.884;9.160;2023-09-19T06:52:40;17.90;99.90
3466;DHT22;1747;48.884;9.160;2023-09-19T06:55:08;18.00;99.90
3466;DHT22;1747;48.884;9.160;2023-09-19T06:57:37;18.00;99.90
3466;DHT22;1747;48.884;9.160;2023-09-19T07:00:07;18.10;99.90
3466;DHT22;1747;48.884;9.160;2023-09-19T07:02:38;18.10;99.90
3466;DHT22;1747;48.884;9.160;2023-09-19T07:05:06;18.20;99.90
3466;DHT22;1747;48.884;9.160;2023-09-19T07:07:33;18.30;99.90
3466;DHT22;1747;48.884;9.160;2023-09-19T07:10:00;18.40;99.90
3466;DHT22;1747;48.884;9.160;2023-09-19T07:12:28;18.50;99.90
3466;DHT22;1747;48.884;9.160;2023-09-19T07:14:55;18.60;99.90
3466;DHT22;1747;48.884;9.160;2023-09-19T07:17:22;18.60;99.90
3466;DHT22;1747;48.884;9.160;2023-09-19T07:19:50;18.50;99.90
3466;DHT22;1747;48.884;9.160;2023-09-19T07:22:17;18.50;99.90
3466;DHT22;1747;48.884;9.160;2023-09-19T07:24:44;18.50;99.90
3466;DHT22;1747;48.884;9.160;2023-09-19T07:27:10;18.50;99.90
3466;DHT22;1747;48.884;9.160;2023-09-19T07:29:38;18.50;99.90
3466;DHT22;1747;48.884;9.160;2023-09-19T07:32:06;18.50;99.90
3466;DHT22;1747;48.884;9.160;2023-09-19T07:34:33;18.60;99.90
3466;DHT22;1747;48.884;9.160;2023-09-19T07:37:00;18.50;99.90
3466;DHT22;1747;48.884;9.160;2023-09-19T07:39:28;18.50;99.90
3466;DHT22;1747;48.884;9.160;2023-09-19T07:41:55;18.50;99.90
3466;DHT22;1747;48.884;9.160;2023-09-19T07:44:22;18.70;99.90
3466;DHT22;1747;48.884;9.160;2023-09-19T07:46:52;18.70;99.90
3466;DHT22;1747;48.884;9.160;2023-09-19T07:49:20;18.60;99.90
3466;DHT22;1747;48.884;9.160;2023-09-19T07:51:47;18.60;99.90
3466;DHT22;1747;48.884;9.160;2023-09-19T07:54:13;18.70;99.90
3466;DHT22;1747;48.884;9.160;2023-09-19T07:56:40;18.80;99.90
3466;DHT22;1747;48.884;9.160;2023-09-19T07:59:07;18.80;99.90
3466;DHT22;1747;48.884;9.160;2023-09-19T08:01:37;18.90;99.90
3466;DHT22;1747;48.884;9.160;2023-09-19T08:04:07;18.90;99.90
3466;DHT22;1747;48.884;9.160;2023-09-19T08:06:34;19.00;99.90
3466;DHT22;1747;48.884;9.160;2023-09-19T08:09:00;19.00;99.90
3466;DHT22;1747;48.884;9.160;2023-09-19T08:11:33;19.10;99.90
3466;DHT22;1747;48.884;9.160;2023-09-19T08:13:59;19.20;99.90
3466;DHT22;1747;48.884;9.160;2023-09-19T08:16:26;19.30;99.90
3466;DHT22;1747;48.884;9.160;2023-09-19T08:18:53;19.40;99.90
3466;DHT22;1747;48.884;9.160;2023-09-19T08:21:23;19.50;99.90
3466;DHT22;1747;48.884;9.160;2023-09-19T08:23:51;19.60;99.90
3466;DHT22;1747;48.884;9.160;2023-09-19T08:26:18;19.60;99.90
3466;DHT22;1747;48.884;9.160;2023-09-19T08:28:45;19.70;99.90
3466;DHT22;1747;48.884;9.160;2023-09-19T08:31:12;19.80;99.90
3466;DHT22;1747;48.884;9.160;2023-09-19T08:33:39;19.80;99.90
3466;DHT22;1747;48.884;9.160;2023-09-19T08:36:07;20.00;99.90
3466;DHT22;1747;48.884;9.160;2023-09-19T08:38:36;20.00;99.90
3466;DHT22;1747;48.884;9.160;2023-09-19T08:41:06;20.00;99.90
3466;DHT22;1747;48.884;9.160;2023-09-19T08:43:33;20.00;99.90
3466;DHT22;1747;48.884;9.160;2023-09-19T08:46:09;20.00;99.90
3466;DHT22;1747;48.884;9.160;2023-09-19T08:48:39;20.00;99.90
3466;DHT22;1747;48.884;9.160;2023-09-19T08:51:16;20.20;99.90
3466;DHT22;1747;48.884;9.160;2023-09-19T08:53:50;20.30;99.90
3466;DHT22;1747;48.884;9.160;2023-09-19T08:56:18;20.40;99.90
3466;DHT22;1747;48.884;9.160;2023-09-19T08:58:50;20.40;99.90
3466;DHT22;1747;48.884;9.160;2023-09-19T09:01:19;20.40;99.90
3466;DHT22;1747;48.884;9.160;2023-09-19T09:03:51;20.60;99.90
3466;DHT22;1747;48.884;9.160;2023-09-19T09:06:18;20.60;99.90
3466;DHT22;1747;48.884;9.160;2023-09-19T09:08:47;20.60;99.90
3466;DHT22;1747;48.884;9.160;2023-09-19T09:11:15;20.70;99.90
3466;DHT22;1747;48.884;9.160;2023-09-19T09:13:43;20.80;99.90
3466;DHT22;1747;48.884;9.160;2023-09-19T09:16:10;20.80;99.90
3466;DHT22;1747;48.884;9.160;2023-09-19T09:18:38;20.90;99.90
3466;DHT22;1747;48.884;9.160;2023-09-19T09:21:05;21.00;99.90
3466;DHT22;1747;48.884;9.160;2023-09-19T09:23:32;21.10;99.90
3466;DHT22;1747;48.884;9.160;2023-09-19T09:26:00;21.20;99.90
3466;DHT22;1747;48.884;9.160;2023-09-19T09:28:31;21.20;99.90
3466;DHT22;1747;48.884;9.160;2023-09-19T09:30:59;21.30;99.90
3466;DHT22;1747;48.884;9.160;2023-09-19T09:33:28;21.20;99.90
3466;DHT22;1747;48.884;9.160;2023-09-19T09:35:56;21.20;99.90
3466;DHT22;1747;48.884;9.160;2023-09-19T09:38:27;21.30;99.90
3466;DHT22;1747;48.884;9.160;2023-09-19T09:40:55;21.50;99.90
3466;DHT22;1747;48.884;9.160;2023-09-19T09:43:29;21.50;99.90
3466;DHT22;1747;48.884;9.160;2023-09-19T09:46:11;21.50;99.90
3466;DHT22;1747;48.884;9.160;2023-09-19T09:49:10;21.50;99.90
3466;DHT22;1747;48.884;9.160;2023-09-19T09:51:48;21.70;99.90
3466;DHT22;1747;48.884;9.160;2023-09-19T09:54:23;21.70;99.90
3466;DHT22;1747;48.884;9.160;2023-09-19T09:56:54;21.80;99.90
3466;DHT22;1747;48.884;9.160;2023-09-19T09:59:47;21.80;99.90
3466;DHT22;1747;48.884;9.160;2023-09-19T10:02:15;21.90;99.90
3466;DHT22;1747;48.884;9.160;2023-09-19T10:04:48;21.90;99.90
3466;DHT22;1747;48.884;9.160;2023-09-19T10:07:33;22.00;99.90
3466;DHT22;1747;48.884;9.160;2023-09-19T10:10:04;22.10;99.90
3466;DHT22;1747;48.884;9.160;2023-09-19T10:12:43;22.20;99.90
3466;DHT22;1747;48.884;9.160;2023-09-19T10:15:12;22.30;99.90
3466;DHT22;1747;48.884;9.160;2023-09-19T10:17:42;22.40;99.90
3466;DHT22;1747;48.884;9.160;2023-09-19T10:20:12;22.40;99.90
3466;DHT22;1747;48.884;9.160;2023-09-19T10:22:48;22.30;99.90
3466;DHT22;1747;48.884;9.160;2023-09-19T10:25:25;22.30;99.90
3466;DHT22;1747;48.884;9.160;2023-09-19T10:27:54;22.30;99.90
3466;DHT22;1747;48.884;9.160;2023-09-19T10:30:24;22.30;99.90
3466;DHT22;1747;48.884;9.160;2023-09-19T10:32:58;22.30;99.90
3466;DHT22;1747;48.884;9.160;2023-09-19T10:35:26;22.30;99.90
3466;DHT22;1747;48.884;9.160;2023-09-19T10:37:54;22.30;99.90
3466;DHT22;1747;48.884;9.160;2023-09-19T10:40:33;22.50;99.90
3466;DHT22;1747;48.884;9.160;2023-09-19T10:43:03;22.70;99.90
3466;DHT22;1747;48.884;9.160;2023-09-19T10:45:32;22.90;99.90
3466;DHT22;1747;48.884;9.160;2023-09-19T10:47:59;23.10;99.90
3466;DHT22;1747;48.884;9.160;2023-09-19T10:50:30;23.20;99.90
3466;DHT22;1747;48.884;9.160;2023-09-19T10:53:00;23.30;99.90
3466;DHT22;1747;48.884;9.160;2023-09-19T10:55:32;23.40;99.90
3466;DHT22;1747;48.884;9.160;2023-09-19T10:58:01;23.40;99.90
3466;DHT22;1747;48.884;9.160;2023-09-19T11:00:50;23.50;99.90
3466;DHT22;1747;48.884;9.160;2023-09-19T11:03:19;23.60;99.90
3466;DHT22;1747;48.884;9.160;2023-09-19T11:06:10;23.60;98.90
3466;DHT22;1747;48.884;9.160;2023-09-19T11:08:53;23.50;99.40
3466;DHT22;1747;48.884;9.160;2023-09-19T11:11:43;23.40;99.00
3466;DHT22;1747;48.884;9.160;2023-09-19T11:14:17;23.30;99.20
3466;DHT22;1747;48.884;9.160;2023-09-19T11:20:23;23.00;99.90
3466;DHT22;1747;48.884;9.160;2023-09-19T11:23:24;22.90;99.90
3466;DHT22;1747;48.884;9.160;2023-09-19T11:25:53;22.80;99.90
3466;DHT22;1747;48.884;9.160;2023-09-19T11:28:34;22.90;99.90
3466;DHT22;1747;48.884;9.160;2023-09-19T11:34:40;22.90;99.90
3466;DHT22;1747;48.884;9.160;2023-09-19T11:40:35;23.20;99.90
3466;DHT22;1747;48.884;9.160;2023-09-19T11:43:29;23.20;99.90
3466;DHT22;1747;48.884;9.160;2023-09-19T11:46:06;23.10;99.90
3466;DHT22;1747;48.884;9.160;2023-09-19T11:48:35;23.00;99.90
3466;DHT22;1747;48.884;9.160;2023-09-19T11:51:14;23.10;99.90
3466;DHT22;1747;48.884;9.160;2023-09-19T11:53:50;23.30;99.90
3466;DHT22;1747;48.884;9.160;2023-09-19T11:56:18;23.50;99.90
3466;DHT22;1747;48.884;9.160;2023-09-19T11:58:46;23.70;99.90
3466;DHT22;1747;48.884;9.160;2023-09-19T12:01:22;23.90;99.90
3466;DHT22;1747;48.884;9.160;2023-09-19T12:03:53;24.40;99.80
3466;DHT22;1747;48.884;9.160;2023-09-19T12:06:23;24.70;99.00
3466;DHT22;1747;48.884;9.160;2023-09-19T12:08:50;24.80;98.40
3466;DHT22;1747;48.884;9.160;2023-09-19T12:11:21;25.00;98.30
3466;DHT22;1747;48.884;9.160;2023-09-19T12:13:49;25.30;97.60
3466;DHT22;1747;48.884;9.160;2023-09-19T12:16:18;25.80;96.50
3466;DHT22;1747;48.884;9.160;2023-09-19T12:18:48;26.20;96.20
3466;DHT22;1747;48.884;9.160;2023-09-19T12:21:26;26.80;95.00
3466;DHT22;1747;48.884;9.160;2023-09-19T12:24:11;27.20;94.50
3466;DHT22;1747;48.884;9.160;2023-09-19T12:26:40;27.60;93.80
3466;DHT22;1747;48.884;9.160;2023-09-19T12:29:16;27.80;92.90
3466;DHT22;1747;48.884;9.160;2023-09-19T12:31:52;28.00;92.30
3466;DHT22;1747;48.884;9.160;2023-09-19T12:34:23;28.50;91.00
3466;DHT22;1747;48.884;9.160;2023-09-19T12:37:08;28.80;90.30
3466;DHT22;1747;48.884;9.160;2023-09-19T12:39:39;29.00;88.40
3466;DHT22;1747;48.884;9.160;2023-09-19T12:42:09;29.10;88.90
3466;DHT22;1747;48.884;9.160;2023-09-19T12:44:37;29.30;86.70
3466;DHT22;1747;48.884;9.160;2023-09-19T12:47:16;29.50;86.20
3466;DHT22;1747;48.884;9.160;2023-09-19T12:50:10;29.70;85.40
3466;DHT22;1747;48.884;9.160;2023-09-19T12:52:43;30.00;82.60
3466;DHT22;1747;48.884;9.160;2023-09-19T12:55:26;30.00;81.20
3466;DHT22;1747;48.884;9.160;2023-09-19T12:58:02;30.00;80.20
3466;DHT22;1747;48.884;9.160;2023-09-19T13:00:35;30.30;81.60
3466;DHT22;1747;48.884;9.160;2023-09-19T13:03:17;30.70;79.60
3466;DHT22;1747;48.884;9.160;2023-09-19T13:05:52;30.80;78.50
3466;DHT22;1747;48.884;9.160;2023-09-19T13:08:24;31.00;77.40
3466;DHT22;1747;48.884;9.160;2023-09-19T13:11:08;31.00;76.50
3466;DHT22;1747;48.884;9.160;2023-09-19T13:13:41;31.20;74.40
3466;DHT22;1747;48.884;9.160;2023-09-19T13:16:10;31.30;75.40
3466;DHT22;1747;48.884;9.160;2023-09-19T13:18:46;31.40;74.60
3466;DHT22;1747;48.884;9.160;2023-09-19T13:21:14;31.40;73.00
3466;DHT22;1747;48.884;9.160;2023-09-19T13:23:53;31.60;74.90
3466;DHT22;1747;48.884;9.160;2023-09-19T13:26:24;31.80;74.40
3466;DHT22;1747;48.884;9.160;2023-09-19T13:28:51;32.00;72.70
3466;DHT22;1747;48.884;9.160;2023-09-19T13:31:18;32.20;71.90
3466;DHT22;1747;48.884;9.160;2023-09-19T13:33:47;32.40;71.80
3466;DHT22;1747;48.884;9.160;2023-09-19T13:36:16;31.90;70.50
3466;DHT22;1747;48.884;9.160;2023-09-19T13:38:44;31.60;71.70
3466;DHT22;1747;48.884;9.160;2023-09-19T13:41:14;31.50;70.10
3466;DHT22;1747;48.884;9.160;2023-09-19T13:43:41;31.00;71.50
3466;DHT22;1747;48.884;9.160;2023-09-19T13:46:14;30.50;71.80
3466;DHT22;1747;48.884;9.160;2023-09-19T13:48:41;29.90;73.70
3466;DHT22;1747;48.884;9.160;2023-09-19T13:51:09;29.40;73.50
3466;DHT22;1747;48.884;9.160;2023-09-19T13:53:36;29.00;74.80
3466;DHT22;1747;48.884;9.160;2023-09-19T13:56:03;28.80;75.20
3466;DHT22;1747;48.884;9.160;2023-09-19T13:58:30;28.50;75.40
3466;DHT22;1747;48.884;9.160;2023-09-19T14:00:59;28.20;74.30
3466;DHT22;1747;48.884;9.160;2023-09-19T14:03:26;27.90;76.80
3466;DHT22;1747;48.884;9.160;2023-09-19T14:05:54;27.80;76.50
3466;DHT22;1747;48.884;9.160;2023-09-19T14:08:22;27.70;75.90
3466;DHT22;1747;48.884;9.160;2023-09-19T14:10:50;27.60;76.10
3466;DHT22;1747;48.884;9.160;2023-09-19T14:13:16;27.50;76.80
3466;DHT22;1747;48.884;9.160;2023-09-19T14:15:43;27.30;77.30
3466;DHT22;1747;48.884;9.160;2023-09-19T14:18:10;27.20;77.50
3466;DHT22;1747;48.884;9.160;2023-09-19T14:20:38;27.20;77.70
3466;DHT22;1747;48.884;9.160;2023-09-19T14:23:06;27.30;77.90
3466;DHT22;1747;48.884;9.160;2023-09-19T14:25:35;27.40;77.50
3466;DHT22;1747;48.884;9.160;2023-09-19T14:28:04;27.30;77.80
3466;DHT22;1747;48.884;9.160;2023-09-19T14:30:32;27.20;78.50
3466;DHT22;1747;48.884;9.160;2023-09-19T14:32:59;27.20;79.00
3466;DHT22;1747;48.884;9.160;2023-09-19T14:35:26;27.20;78.00
3466;DHT22;1747;48.884;9.160;2023-09-19T14:37:53;27.30;79.50
3466;DHT22;1747;48.884;9.160;2023-09-19T14:40:22;27.50;78.80
3466;DHT22;1747;48.884;9.160;2023-09-19T14:42:50;27.80;78.30
3466;DHT22;1747;48.884;9.160;2023-09-19T14:45:17;28.00;77.70
3466;DHT22;1747;48.884;9.160;2023-09-19T14:47:46;28.30;78.20
3466;DHT22;1747;48.884;9.160;2023-09-19T14:50:17;28.60;77.30
3466;DHT22;1747;48.884;9.160;2023-09-19T14:52:44;28.90;76.50
3466;DHT22;1747;48.884;9.160;2023-09-19T14:55:11;29.40;75.40
3466;DHT22;1747;48.884;9.160;2023-09-19T14:57:39;29.60;76.20
3466;DHT22;1747;48.884;9.160;2023-09-19T15:00:13;29.80;75.00
3466;DHT22;1747;48.884;9.160;2023-09-19T15:02:40;29.90;74.70
3466;DHT22;1747;48.884;9.160;2023-09-19T15:05:07;29.80;74.80
3466;DHT22;1747;48.884;9.160;2023-09-19T15:07:37;29.60;74.90
3466;DHT22;1747;48.884;9.160;2023-09-19T15:10:08;29.60;73.50
3466;DHT22;1747;48.884;9.160;2023-09-19T15:12:35;29.50;73.70
3466;DHT22;1747;48.884;9.160;2023-09-19T15:15:04;29.50;74.70
3466;DHT22;1747;48.884;9.160;2023-09-19T15:17:36;29.60;73.90
3466;DHT22;1747;48.884;9.160;2023-09-19T15:20:04;29.80;74.10
3466;DHT22;1747;48.884;9.160;2023-09-19T15:22:32;29.80;72.70
3466;DHT22;1747;48.884;9.160;2023-09-19T15:25:00;30.10;73.20
3466;DHT22;1747;48.884;9.160;2023-09-19T15:27:29;30.30;73.10
3466;DHT22;1747;48.884;9.160;2023-09-19T15:29:59;30.20;70.50
3466;DHT22;1747;48.884;9.160;2023-09-19T15:32:26;30.40;71.40
3466;DHT22;1747;48.884;9.160;2023-09-19T15:34:55;30.40;72.00
3466;DHT22;1747;48.884;9.160;2023-09-19T15:37:22;30.20;73.10
3466;DHT22;1747;48.884;9.160;2023-09-19T15:39:49;30.00;72.10
3466;DHT22;1747;48.884;9.160;2023-09-19T15:42:18;29.70;71.60
3466;DHT22;1747;48.884;9.160;2023-09-19T15:44:54;29.40;71.70
3466;DHT22;1747;48.884;9.160;2023-09-19T15:47:21;28.90;73.40
3466;DHT22;1747;48.884;9.160;2023-09-19T15:49:48;28.50;73.20
3466;DHT22;1747;48.884;9.160;2023-09-19T15:52:20;28.20;73.40
3466;DHT22;1747;48.884;9.160;2023-09-19T15:54:51;27.80;74.60
3466;DHT22;1747;48.884;9.160;2023-09-19T15:57:18;27.70;75.20
3466;DHT22;1747;48.884;9.160;2023-09-19T15:59:44;27.50;75.40
3466;DHT22;1747;48.884;9.160;2023-09-19T16:02:12;27.30;74.80
3466;DHT22;1747;48.884;9.160;2023-09-19T16:04:43;27.20;75.70
3466;DHT22;1747;48.884;9.160;2023-09-19T16:07:10;27.00;77.10
3466;DHT22;1747;48.884;9.160;2023-09-19T16:09:39;26.70;77.90
3466;DHT22;1747;48.884;9.160;2023-09-19T16:12:06;26.60;78.90
3466;DHT22;1747;48.884;9.160;2023-09-19T16:14:34;26.60;79.50
3466;DHT22;1747;48.884;9.160;2023-09-19T16:17:01;26.60;80.30
3466;DHT22;1747;48.884;9.160;2023-09-19T16:19:28;26.60;81.70
3466;DHT22;1747;48.884;9.160;2023-09-19T16:21:55;26.50;81.00
3466;DHT22;1747;48.884;9.160;2023-09-19T16:24:22;26.40;81.00
3466;DHT22;1747;48.884;9.160;2023-09-19T16:26:51;26.20;81.20
3466;DHT22;1747;48.884;9.160;2023-09-19T16:29:18;26.10;81.80
3466;DHT22;1747;48.884;9.160;2023-09-19T16:31:47;26.00;81.10